LSZB/BRN METAR and TAF weather

Enter ICAO airport designator
Station Type Date Time Source
LSZB METAR 2019/04/23 03:50 UTC NOAA

LSZB 230350Z AUTO 33003KT 9999 BKN100 10/08 Q0998


Station Type Date Time Source
LSZB Decoded METAR 2019/04/23 03:50 UTC NOAA

Bern / Belp , Switzerland (LSZB) 46-55N 007-30E
Apr 22, 2019 - 11:50 PM EDT / 2019.04.23 0350 UTC
Wind: from the NNW (330 degrees) at 3 MPH (3 KT):0
Visibility: greater than 7 mile(s):0
Sky conditions: mostly cloudy
Temperature: 50 F (10 C)
Dew Point: 46 F (8 C)
Relative Humidity: 87%
Pressure (altimeter): 29.47 in. Hg (0998 hPa)
ob: LSZB 230350Z AUTO 33003KT 9999 BKN100 10/08 Q0998
cycle: 4

Station Type Date Time Source
LSZB TAF 2014/12/22 20:03 UTC NOAA

TAF
AMD TAF
AMD LSZB 222054Z 2220/2224 CNL

Example: see airport list